Time;durP1;ratioP1;P1;durP2;ratioP2;P2;SDS_P1;SDS_P2;PMS_P1;PMS_P2;Temp;Humidity;BMP_temperature;BMP_pressure;BME280_temperature;BME280_humidity;BME280_pressure;Samples;Min_cycle;Max_cycle;Signal;HPM_P1;HPM_P2
2022/01/05 03:22:01;;;;;;;5.47;3.67;;;;;;;7.40;75.36;98400.88;5088335;27;20570;-67
2022/01/05 03:24:27;;;;;;;6.23;3.30;;;;;;;7.34;75.17;98396.22;5088112;28;20209;-68
2022/01/05 03:26:54;;;;;;;4.90;3.37;;;;;;;7.43;74.63;98390.50;5088387;28;20271;-68
2022/01/05 03:29:21;;;;;;;6.23;3.37;;;;;;;7.32;75.14;98392.97;5088093;28;20205;-58
2022/01/05 03:31:48;;;;;;;6.40;3.17;;;;;;;7.22;75.49;98386.91;5088197;28;20699;-68
2022/01/05 03:34:18;;;;;;;5.33;3.30;;;;;;;7.02;76.84;98395.91;5087982;28;20202;-60
2022/01/05 03:36:47;;;;;;;5.67;3.20;;;;;;;7.11;76.16;98391.94;5088018;28;20456;-68
2022/01/05 03:39:15;;;;;;;4.83;3.30;;;;;;;7.17;76.15;98388.97;5088038;28;20209;-68
2022/01/05 03:41:42;;;;;;;4.43;3.00;;;;;;;7.23;76.03;98383.44;5088308;28;20300;-68
2022/01/05 03:44:09;;;;;;;5.27;3.23;;;;;;;7.11;76.18;98391.94;5087688;28;20220;-68
2022/01/05 03:46:36;;;;;;;4.10;3.03;;;;;;;7.09;76.33;98391.22;5087994;28;20225;-60
2022/01/05 03:49:03;;;;;;;5.53;3.40;;;;;;;7.03;76.32;98388.16;5087761;28;20205;-69
2022/01/05 03:51:30;;;;;;;8.80;3.60;;;;;;;7.06;76.74;98387.16;5087721;28;20242;-67
2022/01/05 03:53:57;;;;;;;4.90;3.10;;;;;;;6.95;77.35;98387.06;5087858;28;20213;-68
2022/01/05 03:56:25;;;;;;;6.57;3.50;;;;;;;6.85;77.85;98388.63;5087933;28;20218;-61
2022/01/05 03:58:52;;;;;;;6.17;3.13;;;;;;;6.82;78.01;98387.09;5087911;28;20198;-60
2022/01/05 04:01:19;;;;;;;5.57;3.13;;;;;;;6.84;78.44;98387.03;5087319;28;20731;-59
2022/01/05 04:03:46;;;;;;;6.00;3.67;;;;;;;6.96;77.47;98386.97;5087385;28;20197;-67
2022/01/05 04:06:12;;;;;;;5.00;3.17;;;;;;;6.85;77.79;98393.72;5087616;28;20215;-59
2022/01/05 04:08:39;;;;;;;6.47;3.40;;;;;;;6.76;78.47;98387.53;5087507;28;20574;-60
2022/01/05 04:11:06;;;;;;;5.13;3.20;;;;;;;6.81;77.80;98388.03;5087485;28;20237;-60
2022/01/05 04:13:34;;;;;;;5.30;3.30;;;;;;;6.86;77.72;98391.06;5087106;28;20202;-68
2022/01/05 04:16:02;;;;;;;8.60;3.33;;;;;;;6.77;77.94;98387.41;5087311;28;20240;-68
2022/01/05 04:18:29;;;;;;;6.00;3.50;;;;;;;6.75;77.91;98391.00;5087389;28;20202;-60
2022/01/05 04:20:55;;;;;;;6.40;3.30;;;;;;;6.83;77.80;98385.38;5086999;28;20226;-59
2022/01/05 04:23:22;;;;;;;4.77;2.77;;;;;;;6.78;78.27;98385.72;5087180;28;20231;-67
2022/01/05 04:25:49;;;;;;;5.97;3.13;;;;;;;6.75;78.20;98385.91;5087323;28;20226;-60
2022/01/05 04:28:16;;;;;;;7.53;3.27;;;;;;;6.75;77.86;98393.53;5086960;28;20218;-68
2022/01/05 04:30:44;;;;;;;4.83;3.27;;;;;;;6.78;78.02;98394.13;5086746;28;20710;-68
2022/01/05 04:33:11;;;;;;;4.63;3.30;;;;;;;6.83;77.60;98386.19;5074352;28;20205;-68
2022/01/05 04:35:38;;;;;;;6.10;3.40;;;;;;;6.89;77.66;98385.75;5073567;28;20710;-59
2022/01/05 04:38:05;;;;;;;5.13;3.00;;;;;;;6.78;77.68;98395.88;5073149;28;20209;-59
2022/01/05 04:40:31;;;;;;;4.27;2.97;;;;;;;6.76;78.33;98385.00;5073631;28;20198;-68
2022/01/05 04:42:58;;;;;;;6.73;3.30;;;;;;;6.65;78.57;98383.16;5073198;28;20224;-67
2022/01/05 04:45:25;;;;;;;6.53;3.23;;;;;;;6.65;78.91;98382.34;5073284;28;20225;-59
2022/01/05 04:47:53;;;;;;;6.77;3.00;;;;;;;6.62;78.88;98380.84;5073386;28;20202;-67
2022/01/05 04:50:20;;;;;;;5.80;3.23;;;;;;;6.71;78.24;98381.94;5073121;28;20268;-59
2022/01/05 04:52:47;;;;;;;4.97;3.23;;;;;;;6.70;78.18;98382.88;5073121;28;20691;-59
2022/01/05 04:55:14;;;;;;;5.30;3.20;;;;;;;6.69;78.02;98387.13;5072859;28;20199;-60
2022/01/05 04:57:40;;;;;;;7.20;3.20;;;;;;;6.69;78.13;98378.69;5072869;28;20668;-59
2022/01/05 05:00:08;;;;;;;7.20;3.10;;;;;;;6.65;78.35;98382.34;5073173;28;20202;-67
2022/01/05 05:02:35;;;;;;;4.50;3.20;;;;;;;6.84;77.31;98381.94;5072788;28;20219;-59
2022/01/05 05:05:04;;;;;;;6.00;3.13;;;;;;;6.77;77.51;98386.59;5072991;28;20686;-68
2022/01/05 05:07:31;;;;;;;5.90;3.10;;;;;;;6.82;76.95;98389.66;5072688;28;20223;-60
2022/01/05 05:09:57;;;;;;;7.20;3.30;;;;;;;6.93;76.67;98382.09;5073012;28;20206;-59
2022/01/05 05:12:24;;;;;;;5.13;3.00;;;;;;;6.87;76.80;98384.28;5072895;28;20237;-67
2022/01/05 05:14:51;;;;;;;4.77;3.00;;;;;;;6.60;78.26;98379.31;5072999;28;20209;-59
2022/01/05 05:17:18;;;;;;;4.63;2.93;;;;;;;6.53;78.59;98384.81;5072780;28;20227;-68
2022/01/05 05:19:45;;;;;;;5.90;3.27;;;;;;;6.43;79.83;98383.81;5072480;28;20213;-67
2022/01/05 05:22:13;;;;;;;6.13;3.30;;;;;;;6.38;79.98;98379.94;5072523;28;20226;-59
2022/01/05 05:24:39;;;;;;;5.20;3.00;;;;;;;6.34;79.73;98384.38;5072653;28;20195;-68
2022/01/05 05:27:07;;;;;;;6.20;2.60;;;;;;;6.45;79.46;98391.31;5072539;28;20215;-68
2022/01/05 05:29:34;;;;;;;5.93;3.30;;;;;;;6.64;78.48;98386.63;5072219;28;20210;-59
2022/01/05 05:32:00;;;;;;;4.90;3.00;;;;;;;6.60;78.46;98390.28;5072199;28;20250;-59
2022/01/05 05:34:27;;;;;;;4.90;3.00;;;;;;;6.67;77.83;98388.16;5072313;28;20801;-68
2022/01/05 05:36:54;;;;;;;5.77;3.23;;;;;;;6.74;77.79;98399.50;5072601;28;20233;-68
2022/01/05 05:39:22;;;;;;;5.93;3.10;;;;;;;6.64;78.34;98395.97;5072219;28;20209;-60
2022/01/05 05:41:49;;;;;;;4.97;3.30;;;;;;;6.54;78.76;98400.84;5072286;28;20227;-59
2022/01/05 05:44:16;;;;;;;5.00;3.07;;;;;;;6.61;78.53;98402.06;5070971;28;20604;-59
2022/01/05 05:46:43;;;;;;;5.57;3.00;;;;;;;6.57;78.77;98390.47;5072256;28;20704;-59
2022/01/05 05:49:09;;;;;;;4.93;3.10;;;;;;;6.54;78.96;98401.69;5072092;28;20202;-59
2022/01/05 05:51:36;;;;;;;6.70;3.17;;;;;;;6.43;79.10;98399.03;5071844;28;20261;-68
2022/01/05 05:54:04;;;;;;;6.23;2.83;;;;;;;6.41;79.23;98400.06;5071893;28;20202;-67
2022/01/05 05:56:32;;;;;;;5.47;2.80;;;;;;;6.33;79.81;98398.00;5071823;28;20746;-68
2022/01/05 05:58:59;;;;;;;5.50;3.30;;;;;;;6.29;80.00;98401.69;5071597;28;20690;-59
2022/01/05 06:01:26;;;;;;;5.00;2.97;;;;;;;6.32;80.11;98396.41;5071568;28;20227;-68
2022/01/05 06:03:52;;;;;;;7.30;3.00;;;;;;;6.27;80.37;98398.41;5071734;28;20244;-66
2022/01/05 06:06:19;;;;;;;10.43;3.90;;;;;;;6.25;80.44;98395.16;5072049;28;20229;-58
2022/01/05 06:08:46;;;;;;;7.67;3.60;;;;;;;6.26;80.49;98401.88;5071433;28;20202;-67
2022/01/05 06:11:13;;;;;;;4.70;3.33;;;;;;;6.23;80.94;98407.16;5071545;28;20241;-58
2022/01/05 06:13:41;;;;;;;6.13;3.23;;;;;;;6.22;80.88;98400.44;5071415;28;20199;-67
2022/01/05 06:16:08;;;;;;;5.30;3.17;;;;;;;6.27;80.84;98406.03;5071476;28;20214;-58
2022/01/05 06:18:35;;;;;;;6.30;2.77;;;;;;;6.25;80.93;98406.13;5071329;28;20198;-68
2022/01/05 06:21:01;;;;;;;5.87;3.03;;;;;;;6.33;80.87;98414.06;5071039;28;20230;-68
2022/01/05 06:23:28;;;;;;;5.87;2.90;;;;;;;6.42;80.33;98410.09;5071202;28;20794;-59
2022/01/05 06:25:55;;;;;;;5.57;3.10;;;;;;;6.64;79.42;98406.94;5071346;28;20222;-58
2022/01/05 06:28:22;;;;;;;6.43;3.13;;;;;;;6.80;78.60;98404.19;5071551;28;20202;-59
2022/01/05 06:30:51;;;;;;;5.20;2.97;;;;;;;6.87;78.01;98402.88;5071143;28;20256;-58
2022/01/05 06:33:18;;;;;;;5.70;3.00;;;;;;;7.09;77.44;98401.38;5070947;28;20198;-58
2022/01/05 06:35:45;;;;;;;5.90;3.30;;;;;;;7.17;76.82;98405.03;5071293;28;20608;-67
2022/01/05 06:38:11;;;;;;;11.17;3.07;;;;;;;7.24;76.54;98405.41;5070949;28;20729;-67
2022/01/05 06:40:38;;;;;;;7.70;2.93;;;;;;;7.41;76.06;98406.78;5071051;28;20260;-68
2022/01/05 06:43:05;;;;;;;4.77;3.13;;;;;;;7.41;76.33;98407.56;5070959;28;20206;-67
2022/01/05 06:45:32;;;;;;;6.07;3.00;;;;;;;7.59;75.74;98409.75;5071002;28;20206;-59
2022/01/05 06:48:00;;;;;;;4.83;3.00;;;;;;;7.60;75.48;98406.31;5070916;28;20209;-58
2022/01/05 06:50:27;;;;;;;7.20;3.43;;;;;;;7.80;75.47;98403.16;5070972;28;20651;-68
2022/01/05 06:52:56;;;;;;;4.57;2.97;;;;;;;7.92;75.32;98404.00;5070788;28;20234;-59
2022/01/05 06:55:23;;;;;;;4.30;2.77;;;;;;;8.10;74.14;98409.47;5070795;28;20276;-68
2022/01/05 06:57:51;;;;;;;4.17;2.83;;;;;;;8.23;73.81;98409.38;5071054;28;20307;-68
2022/01/05 07:00:18;;;;;;;6.47;2.87;;;;;;;8.37;73.20;98414.28;5070791;28;20579;-68
2022/01/05 07:02:46;;;;;;;6.20;3.10;;;;;;;8.56;71.77;98418.84;5070969;28;20206;-59
2022/01/05 07:05:14;;;;;;;5.67;3.20;;;;;;;8.76;70.90;98418.16;5070735;28;20219;-59
2022/01/05 07:07:41;;;;;;;5.70;3.17;;;;;;;9.05;69.96;98423.59;5070652;28;20198;-68
2022/01/05 07:10:09;;;;;;;4.70;2.77;;;;;;;9.29;69.46;98426.00;5070642;28;20195;-67
2022/01/05 07:12:37;;;;;;;4.03;2.80;;;;;;;9.38;68.37;98418.56;5070279;28;20230;-59
2022/01/05 07:15:05;;;;;;;5.17;2.73;;;;;;;9.54;68.50;98419.00;5070727;28;20203;-59
2022/01/05 07:17:32;;;;;;;7.23;3.50;;;;;;;9.68;68.10;98421.25;5070467;28;20222;-58
2022/01/05 07:19:58;;;;;;;4.67;2.70;;;;;;;9.90;66.80;98422.09;5070454;28;20210;-68
2022/01/05 07:22:27;;;;;;;4.60;2.90;;;;;;;10.13;66.09;98428.72;5070919;28;20226;-67
2022/01/05 07:24:56;;;;;;;4.30;2.90;;;;;;;10.45;65.71;98429.63;5070794;28;20203;-59
2022/01/05 07:27:22;;;;;;;5.57;3.10;;;;;;;10.60;64.84;98431.72;5070657;28;20715;-68
2022/01/05 07:29:49;;;;;;;5.47;2.97;;;;;;;10.82;64.26;98437.59;5070506;28;20202;-68
2022/01/05 07:32:16;;;;;;;4.67;2.97;;;;;;;10.90;63.90;98435.22;5070384;28;21269;-59
2022/01/05 07:34:43;;;;;;;4.23;3.03;;;;;;;11.03;63.01;98440.91;5070627;28;20209;-58
2022/01/05 07:37:10;;;;;;;7.00;3.07;;;;;;;11.13;63.16;98437.59;5069780;28;20222;-59
2022/01/05 07:39:39;;;;;;;5.70;3.23;;;;;;;11.17;63.74;98436.38;5070319;28;20684;-66
2022/01/05 07:42:07;;;;;;;5.13;3.00;;;;;;;11.20;63.00;98425.88;5070378;28;20225;-59
2022/01/05 07:44:34;;;;;;;6.70;3.13;;;;;;;11.23;64.14;98423.06;5070105;28;20203;-68
2022/01/05 07:47:01;;;;;;;5.70;3.37;;;;;;;11.28;62.28;98431.94;5070322;28;20223;-59
2022/01/05 07:49:28;;;;;;;5.43;2.93;;;;;;;11.35;61.37;98428.91;5070049;28;20695;-68
2022/01/05 07:51:55;;;;;;;4.70;2.70;;;;;;;11.49;61.40;98420.81;5070235;28;20238;-68
2022/01/05 07:54:22;;;;;;;6.17;3.00;;;;;;;11.50;60.42;98428.38;5070283;28;20202;-68
2022/01/05 07:56:50;;;;;;;5.53;3.20;;;;;;;11.63;60.95;98427.28;5070444;28;20227;-67
2022/01/05 07:59:17;;;;;;;4.70;2.93;;;;;;;11.81;60.08;98420.59;5070086;28;20633;-59
2022/01/05 08:01:43;;;;;;;8.07;2.87;;;;;;;11.87;59.60;98420.06;5069082;28;20223;-68
2022/01/05 08:04:10;;;;;;;5.20;2.90;;;;;;;12.08;60.80;98419.91;5069328;28;20206;-60
2022/01/05 08:06:37;;;;;;;6.97;2.97;;;;;;;12.28;59.43;98423.25;5069459;28;20226;-60
2022/01/05 08:09:04;;;;;;;4.67;3.13;;;;;;;12.49;58.64;98429.97;5073459;28;20206;-68
2022/01/05 08:11:31;;;;;;;5.50;2.90;;;;;;;12.66;57.18;98424.91;5073342;28;20245;-68
2022/01/05 08:13:59;;;;;;;4.87;3.40;;;;;;;12.89;58.08;98427.13;5073328;28;20210;-61
2022/01/05 08:16:26;;;;;;;5.37;3.23;;;;;;;13.14;56.53;98425.63;5073721;28;20726;-69
2022/01/05 08:18:53;;;;;;;6.70;3.13;;;;;;;13.24;55.36;98425.59;5073482;28;20598;-68
2022/01/05 08:21:21;;;;;;;6.10;3.10;;;;;;;13.48;56.64;98422.50;5073438;28;20226;-60
2022/01/05 08:23:48;;;;;;;3.77;2.83;;;;;;;13.76;56.16;98415.56;5073208;28;20237;-69
2022/01/05 08:26:15;;;;;;;5.37;3.27;;;;;;;14.00;53.53;98417.50;5072988;28;20301;-60
2022/01/05 08:28:42;;;;;;;5.53;2.97;;;;;;;13.99;53.20;98413.31;5072986;28;20203;-68
2022/01/05 08:31:10;;;;;;;5.23;3.20;;;;;;;13.97;54.36;98420.38;5072948;28;20218;-67
2022/01/05 08:33:37;;;;;;;5.60;3.27;;;;;;;14.18;54.19;98420.84;5073312;28;20202;-68
2022/01/05 08:36:05;;;;;;;4.90;3.13;;;;;;;14.38;53.77;98420.66;5072746;28;20232;-60
2022/01/05 08:38:32;;;;;;;5.17;3.60;;;;;;;14.31;53.66;98419.63;5072897;28;20695;-60
2022/01/05 08:40:59;;;;;;;5.40;3.23;;;;;;;14.58;52.02;98422.09;5072889;28;20275;-68
2022/01/05 08:43:26;;;;;;;6.77;3.60;;;;;;;14.77;51.50;98421.06;5072808;28;20737;-60
2022/01/05 08:45:52;;;;;;;5.03;3.10;;;;;;;15.04;52.00;98422.63;5073155;28;20248;-60
2022/01/05 08:48:21;;;;;;;5.47;3.37;;;;;;;15.34;52.71;98420.47;5073098;28;20202;-60
2022/01/05 08:50:48;;;;;;;5.50;3.30;;;;;;;15.53;50.09;98416.78;5073359;28;20292;-60
2022/01/05 08:53:15;;;;;;;7.40;3.60;;;;;;;15.47;51.28;98412.25;5072793;28;20234;-68
2022/01/05 08:55:45;;;;;;;5.83;3.33;;;;;;;15.58;50.12;98415.34;5072957;28;20226;-69
2022/01/05 08:58:14;;;;;;;9.30;3.53;;;;;;;15.66;49.23;98406.81;5073002;28;20199;-60
2022/01/05 09:00:41;;;;;;;4.43;3.03;;;;;;;15.78;48.00;98404.78;5073007;28;20599;-59
2022/01/05 09:03:09;;;;;;;4.10;2.93;;;;;;;15.91;47.74;98407.69;5072825;28;20228;-69
2022/01/05 09:05:37;;;;;;;4.63;3.17;;;;;;;15.77;47.08;98403.97;5072851;28;20250;-60
2022/01/05 09:08:04;;;;;;;5.40;3.17;;;;;;;15.90;49.28;98403.47;5071921;28;20705;-69
2022/01/05 09:10:31;;;;;;;5.50;3.33;;;;;;;16.06;50.51;98407.84;5070748;28;20202;-61
2022/01/05 09:12:58;;;;;;;4.97;3.13;;;;;;;16.24;49.62;98397.34;5072557;28;20238;-69
2022/01/05 09:15:25;;;;;;;5.97;3.27;;;;;;;16.25;47.22;98402.31;5072603;28;20208;-69
2022/01/05 09:17:53;;;;;;;4.20;3.03;;;;;;;16.23;48.89;98400.88;5072311;28;20190;-61
2022/01/05 09:20:20;;;;;;;7.70;3.30;;;;;;;16.06;48.13;98406.06;5072599;28;20215;-69
2022/01/05 09:22:48;;;;;;;4.77;3.33;;;;;;;16.37;48.91;98401.97;5072435;28;20214;-60
2022/01/05 09:25:18;;;;;;;4.20;3.00;;;;;;;16.44;45.83;98395.19;5072242;28;20205;-69
2022/01/05 09:27:45;;;;;;;6.13;3.27;;;;;;;16.38;46.94;98401.81;5072339;28;20225;-69
2022/01/05 09:30:14;;;;;;;5.27;3.17;;;;;;;16.44;46.90;98395.19;5072129;28;20198;-67
2022/01/05 09:32:41;;;;;;;5.90;3.13;;;;;;;16.43;45.88;98394.38;5072020;28;20233;-60
2022/01/05 09:35:11;;;;;;;4.83;3.00;;;;;;;16.73;47.36;98386.88;5072004;28;20199;-69
2022/01/05 09:37:48;;;;;;;5.80;3.30;;;;;;;16.65;46.51;98386.91;5072369;28;20206;-69
2022/01/05 09:43:02;;;;;;;6.70;3.73;;;;;;;17.15;44.92;98378.00;5071819;28;20332;-69
2022/01/05 09:45:33;;;;;;;5.97;3.40;;;;;;;17.35;45.07;98375.78;5072036;28;20218;-60
2022/01/05 09:48:19;;;;;;;4.30;3.20;;;;;;;17.19;44.96;98380.06;5071958;28;20204;-69
2022/01/05 09:50:51;;;;;;;6.80;4.13;;;;;;;17.50;46.16;98375.84;5072033;28;20280;-69
2022/01/05 09:53:18;;;;;;;6.57;3.40;;;;;;;17.66;45.10;98367.97;5071728;28;20235;-60
2022/01/05 09:55:51;;;;;;;5.03;3.40;;;;;;;17.69;45.82;98365.03;5071821;28;20532;-70
2022/01/05 09:58:20;;;;;;;7.50;2.93;;;;;;;17.88;45.22;98353.41;5071719;28;20203;-69
2022/01/05 10:00:47;;;;;;;6.50;3.37;;;;;;;18.18;44.04;98349.09;5071620;28;20288;-60
2022/01/05 10:03:15;;;;;;;7.93;3.83;;;;;;;18.52;44.12;98352.94;5071745;28;20200;-68
2022/01/05 10:05:41;;;;;;;5.87;3.53;;;;;;;18.65;42.72;98354.91;5071708;28;20279;-60
2022/01/05 10:08:09;;;;;;;6.23;3.80;;;;;;;18.72;43.92;98348.81;5071412;28;20709;-69
2022/01/05 10:10:36;;;;;;;5.23;3.17;;;;;;;18.73;44.33;98340.09;5071304;28;20217;-69
2022/01/05 10:13:04;;;;;;;5.93;3.17;;;;;;;18.93;43.72;98342.09;5071248;28;20237;-61
2022/01/05 10:15:31;;;;;;;5.67;3.30;;;;;;;19.11;40.71;98332.16;5071678;28;20210;-60
2022/01/05 10:18:10;;;;;;;5.17;3.20;;;;;;;19.31;43.24;98334.09;5071402;28;20207;-69
2022/01/05 10:20:37;;;;;;;5.63;3.47;;;;;;;19.46;41.48;98332.28;5071377;28;20266;-69
2022/01/05 10:23:03;;;;;;;5.90;3.30;;;;;;;19.29;41.65;98336.91;5071111;28;20674;-60
2022/01/05 10:25:30;;;;;;;5.10;3.47;;;;;;;19.39;41.60;98341.75;5070998;28;20208;-69
2022/01/05 10:27:58;;;;;;;4.97;3.23;;;;;;;19.44;40.50;98339.44;5071084;28;20206;-61
2022/01/05 10:30:37;;;;;;;6.37;3.80;;;;;;;19.55;41.70;98333.75;5070645;28;20199;-69
2022/01/05 10:33:04;;;;;;;4.63;3.47;;;;;;;19.84;41.16;98329.41;5070980;28;20247;-69
2022/01/05 10:35:31;;;;;;;4.70;3.33;;;;;;;19.50;39.47;98322.31;5071168;28;20212;-69
2022/01/05 10:38:00;;;;;;;5.23;3.87;;;;;;;19.72;41.76;98326.50;5070913;28;20200;-60
2022/01/05 10:40:27;;;;;;;5.40;3.70;;;;;;;19.73;41.44;98324.72;5071095;28;20226;-60
2022/01/05 10:42:56;;;;;;;5.30;3.17;;;;;;;19.30;41.73;98314.38;5070846;28;20200;-68
2022/01/05 10:45:25;;;;;;;4.90;3.23;;;;;;;19.34;42.19;98313.00;5070820;28;20196;-62
2022/01/05 10:48:05;;;;;;;5.17;3.43;;;;;;;19.26;41.71;98300.16;5070797;28;20197;-69
2022/01/05 10:50:32;;;;;;;4.83;3.43;;;;;;;19.37;43.00;98304.84;5070839;28;20203;-69
2022/01/05 10:52:59;;;;;;;5.23;3.00;;;;;;;19.10;42.17;98302.00;5070722;28;20641;-60
2022/01/05 10:55:28;;;;;;;5.23;3.40;;;;;;;18.86;43.76;98307.56;5070980;28;20586;-69
2022/01/05 10:58:00;;;;;;;5.00;3.33;;;;;;;18.57;43.35;98301.41;5070677;28;20202;-69
2022/01/05 11:00:35;;;;;;;5.20;3.67;;;;;;;18.60;45.25;98295.88;5070903;28;20207;-60
2022/01/05 11:03:21;;;;;;;4.97;3.20;;;;;;;18.83;43.17;98292.38;5070433;28;20201;-70
2022/01/05 11:06:08;;;;;;;4.83;3.37;;;;;;;18.68;42.52;98303.56;5070967;28;20593;-70
2022/01/05 11:08:49;;;;;;;5.87;3.60;;;;;;;18.69;42.67;98299.16;5070799;28;20255;-69
2022/01/05 11:11:31;;;;;;;5.80;3.90;;;;;;;18.88;42.28;98300.38;5070893;28;20683;-69
2022/01/05 11:13:58;;;;;;;4.70;3.30;;;;;;;19.08;43.29;98295.41;5070524;28;20235;-60
2022/01/05 11:16:27;;;;;;;5.00;3.27;;;;;;;18.63;43.10;98284.38;5070585;28;20223;-70
2022/01/05 11:19:12;;;;;;;4.07;3.00;;;;;;;18.85;40.86;98283.44;5070505;28;20234;-70
2022/01/05 11:21:39;;;;;;;4.23;2.87;;;;;;;18.93;42.15;98285.09;5070814;28;20265;-70
2022/01/05 11:24:06;;;;;;;4.93;3.27;;;;;;;17.91;44.23;98269.50;5070409;28;20213;-60
2022/01/05 11:26:35;;;;;;;4.17;2.93;;;;;;;17.82;44.60;98266.22;5070477;28;20280;-70
2022/01/05 11:29:03;;;;;;;4.20;2.70;;;;;;;17.40;45.03;98273.50;5070329;28;20209;-70
2022/01/05 11:31:31;;;;;;;4.43;3.00;;;;;;;17.47;45.84;98262.47;5070338;28;20224;-69
2022/01/05 11:33:58;;;;;;;4.13;3.00;;;;;;;17.94;44.24;98263.97;5070181;28;20246;-69
2022/01/05 11:36:27;;;;;;;5.67;2.90;;;;;;;18.19;44.38;98251.59;5070303;28;20219;-61
2022/01/05 11:38:54;;;;;;;6.73;3.23;;;;;;;18.67;44.90;98255.31;5070263;28;20600;-60
2022/01/05 11:41:22;;;;;;;4.00;2.80;;;;;;;18.97;43.19;98244.91;5070235;28;20222;-70
2022/01/05 11:43:49;;;;;;;7.57;3.00;;;;;;;18.81;43.17;98235.56;5074208;28;20217;-61
2022/01/05 11:46:19;;;;;;;4.87;3.10;;;;;;;18.44;45.34;98244.31;5074448;28;20253;-70
2022/01/05 11:48:59;;;;;;;6.27;3.47;;;;;;;18.58;46.09;98235.72;5074239;28;20231;-69
2022/01/05 11:51:31;;;;;;;5.63;3.80;;;;;;;18.39;45.92;98236.31;5074145;28;20733;-60
2022/01/05 11:54:14;;;;;;;5.40;3.80;;;;;;;18.54;46.00;98229.31;5074189;28;20233;-69
2022/01/05 11:56:42;;;;;;;7.60;3.70;;;;;;;18.72;46.81;98227.09;5074434;28;20225;-60
2022/01/05 11:59:21;;;;;;;5.20;4.00;;;;;;;18.20;47.60;98225.53;5074003;28;20226;-60
2022/01/05 12:01:59;;;;;;;7.57;4.40;;;;;;;18.05;48.34;98224.75;5074182;28;20229;-69
2022/01/05 12:04:27;;;;;;;8.20;4.30;;;;;;;17.53;48.74;98220.41;5073791;28;20210;-60
2022/01/05 12:07:09;;;;;;;7.13;4.80;;;;;;;17.61;50.35;98217.75;5074112;28;20247;-61
2022/01/05 12:09:41;;;;;;;5.83;4.10;;;;;;;17.49;51.36;98211.44;5073965;28;20200;-60
2022/01/05 12:12:30;;;;;;;6.03;4.40;;;;;;;17.58;50.63;98213.75;5073844;28;20644;-60
2022/01/05 12:14:57;;;;;;;8.33;3.90;;;;;;;17.48;51.05;98209.78;5073924;28;20218;-69
2022/01/05 12:17:25;;;;;;;6.50;4.27;;;;;;;16.74;51.77;98213.75;5073772;28;20704;-65
2022/01/05 12:20:15;;;;;;;5.57;3.47;;;;;;;16.86;51.99;98203.06;5073760;28;20284;-60
2022/01/05 12:22:44;;;;;;;7.07;4.63;;;;;;;16.97;52.80;98198.28;5073726;28;20660;-69
2022/01/05 12:25:20;;;;;;;6.33;4.00;;;;;;;16.78;52.31;98192.78;5073738;28;20204;-60
2022/01/05 12:27:52;;;;;;;7.17;4.27;;;;;;;16.70;54.11;98188.47;5073435;28;20216;-69
2022/01/05 12:30:38;;;;;;;7.97;4.50;;;;;;;16.66;54.86;98197.50;5073485;28;20672;-61
2022/01/05 12:33:08;;;;;;;6.63;4.00;;;;;;;16.97;53.46;98187.97;5073247;28;20717;-60
2022/01/05 12:35:56;;;;;;;6.17;4.03;;;;;;;16.96;54.06;98183.78;5073748;28;20218;-68
2022/01/05 12:38:45;;;;;;;5.67;4.20;;;;;;;16.68;53.52;98182.66;5073291;28;20204;-60
2022/01/05 12:41:39;;;;;;;7.07;4.30;;;;;;;16.62;54.71;98178.19;5073231;28;20229;-60
2022/01/05 12:44:34;;;;;;;8.10;4.20;;;;;;;16.47;55.00;98178.94;5073159;28;20209;-69
2022/01/05 12:47:01;;;;;;;6.17;4.03;;;;;;;16.89;53.59;98174.31;5073270;28;20222;-70
2022/01/05 12:49:31;;;;;;;6.10;3.90;;;;;;;16.95;54.03;98165.88;5073019;28;20684;-69
2022/01/05 12:52:10;;;;;;;7.97;4.03;;;;;;;16.57;55.26;98165.00;5072994;28;20315;-60
2022/01/05 12:54:47;;;;;;;6.40;4.23;;;;;;;16.74;53.50;98164.72;5072470;28;20228;-69
2022/01/05 12:57:21;;;;;;;6.57;4.03;;;;;;;16.73;54.47;98159.72;5072899;28;20632;-61
2022/01/05 12:59:50;;;;;;;6.47;3.80;;;;;;;16.82;53.04;98169.03;5072846;28;20229;-60
2022/01/05 13:02:23;;;;;;;7.83;3.87;;;;;;;16.58;53.60;98159.69;5072715;28;20715;-69
2022/01/05 13:04:51;;;;;;;6.87;3.73;;;;;;;16.71;54.01;98159.88;5073064;28;20199;-70
2022/01/05 13:07:18;;;;;;;5.97;3.93;;;;;;;16.82;54.25;98160.50;5072754;28;20227;-60
2022/01/05 13:09:49;;;;;;;5.50;3.80;;;;;;;16.50;54.30;98159.72;5072664;28;20209;-60
2022/01/05 13:12:18;;;;;;;7.07;3.90;;;;;;;16.77;54.34;98150.69;5072514;28;20221;-60
2022/01/05 13:14:46;;;;;;;5.87;3.70;;;;;;;16.88;54.38;98155.44;5072612;28;20246;-70
2022/01/05 13:17:16;;;;;;;5.53;3.80;;;;;;;16.86;54.98;98166.91;5072659;28;20219;-60
2022/01/05 13:19:46;;;;;;;6.50;3.80;;;;;;;16.84;55.89;98161.94;5072593;28;20223;-69
2022/01/05 13:22:19;;;;;;;6.20;3.67;;;;;;;16.91;55.68;98159.47;5072517;28;20622;-69
2022/01/05 13:24:53;;;;;;;7.60;3.67;;;;;;;16.89;55.05;98162.19;5072571;28;20393;-60
2022/01/05 13:27:21;;;;;;;6.27;4.23;;;;;;;16.77;55.11;98168.75;5072637;28;20709;-60
2022/01/05 13:29:49;;;;;;;6.10;3.97;;;;;;;16.75;56.08;98168.09;5072237;28;20734;-60
2022/01/05 13:32:18;;;;;;;6.67;4.23;;;;;;;16.67;57.59;98174.13;5072257;28;20219;-60
2022/01/05 13:34:47;;;;;;;7.00;4.40;;;;;;;16.59;58.32;98170.81;5072080;28;20242;-60
2022/01/05 13:37:27;;;;;;;6.10;4.00;;;;;;;16.44;57.65;98166.38;5071942;28;20227;-69
2022/01/05 13:39:59;;;;;;;6.77;4.10;;;;;;;16.32;57.28;98170.31;5072361;28;20198;-69
2022/01/05 13:42:39;;;;;;;8.13;4.33;;;;;;;16.19;57.95;98167.47;5072076;28;20218;-70
2022/01/05 13:45:08;;;;;;;6.03;3.90;;;;;;;15.75;57.91;98173.13;5072195;28;20203;-60
2022/01/05 13:47:35;;;;;;;6.80;3.67;;;;;;;15.51;58.89;98167.06;5071979;28;20640;-60
2022/01/05 13:50:20;;;;;;;6.07;3.90;;;;;;;15.29;60.30;98160.81;5072196;28;20204;-69
2022/01/05 13:52:56;;;;;;;6.00;4.00;;;;;;;15.27;60.97;98167.09;5071727;28;20210;-60
2022/01/05 13:55:30;;;;;;;6.57;4.20;;;;;;;15.25;60.93;98159.53;5072224;28;20209;-60
2022/01/05 13:58:09;;;;;;;6.00;3.50;;;;;;;14.82;62.12;98160.69;5071691;28;20690;-69
2022/01/05 14:00:38;;;;;;;6.77;4.20;;;;;;;14.83;64.42;98172.59;5071946;28;20218;-69
2022/01/05 14:03:05;;;;;;;6.97;4.03;;;;;;;14.78;66.48;98167.13;5071761;28;20234;-69
2022/01/05 14:05:33;;;;;;;5.70;3.77;;;;;;;14.38;65.91;98166.88;5070935;28;20664;-69
2022/01/05 14:08:07;;;;;;;5.10;3.80;;;;;;;14.23;66.33;98161.53;5071526;28;20210;-70
2022/01/05 14:10:37;;;;;;;5.97;4.00;;;;;;;14.14;66.23;98157.34;5071835;28;20214;-69
2022/01/05 14:13:05;;;;;;;7.27;4.03;;;;;;;14.00;67.12;98165.63;5071383;28;20230;-60
2022/01/05 14:15:33;;;;;;;6.20;3.73;;;;;;;13.85;67.24;98167.19;5071463;28;20651;-69
2022/01/05 14:18:02;;;;;;;5.73;3.70;;;;;;;13.84;67.57;98165.56;5071262;28;20596;-69
2022/01/05 14:20:30;;;;;;;5.97;3.93;;;;;;;13.76;68.07;98159.44;5071300;28;20260;-60
2022/01/05 14:23:02;;;;;;;5.30;3.80;;;;;;;13.57;67.83;98160.47;5071236;28;20215;-69
2022/01/05 14:25:40;;;;;;;5.77;3.70;;;;;;;13.63;67.65;98163.38;5071357;28;20198;-69
2022/01/05 14:28:14;;;;;;;8.50;5.43;;;;;;;13.30;68.86;98165.78;5071533;28;20210;-69
2022/01/05 14:30:52;;;;;;;5.87;3.60;;;;;;;13.42;69.03;98164.56;5071160;28;20229;-60
2022/01/05 14:33:30;;;;;;;6.47;3.93;;;;;;;13.46;68.47;98159.91;5070846;28;20211;-60
2022/01/05 14:35:58;;;;;;;7.70;4.70;;;;;;;13.46;68.41;98170.19;5070655;28;20230;-60
2022/01/05 14:38:25;;;;;;;6.43;3.93;;;;;;;13.24;68.59;98164.59;5071351;28;20621;-60
2022/01/05 14:41:07;;;;;;;7.30;3.67;;;;;;;13.09;69.37;98160.94;5071216;28;20695;-60
2022/01/05 14:43:34;;;;;;;5.70;3.73;;;;;;;13.11;68.46;98153.88;5070893;28;20193;-69
2022/01/05 14:46:01;;;;;;;7.43;4.33;;;;;;;12.97;68.58;98155.22;5070719;28;20219;-69
2022/01/05 14:48:28;;;;;;;6.87;4.17;;;;;;;12.80;69.00;98150.91;5070929;28;20214;-60
2022/01/05 14:50:55;;;;;;;6.83;4.60;;;;;;;12.73;69.78;98153.28;5071033;28;20219;-60
2022/01/05 14:53:22;;;;;;;7.90;4.60;;;;;;;12.61;69.71;98146.75;5070725;28;20687;-60
2022/01/05 14:55:49;;;;;;;9.90;5.27;;;;;;;12.37;70.28;98150.72;5070924;28;20352;-69
2022/01/05 14:58:17;;;;;;;9.73;4.93;;;;;;;12.30;70.40;98146.28;5070767;28;20202;-68
2022/01/05 15:00:44;;;;;;;11.27;5.00;;;;;;;12.31;69.42;98148.72;5070678;28;20218;-63
2022/01/05 15:03:10;;;;;;;10.40;5.40;;;;;;;12.07;70.27;98148.44;5070480;28;20198;-69
2022/01/05 15:05:38;;;;;;;7.10;4.33;;;;;;;12.04;70.51;98148.75;5070762;28;20218;-69
2022/01/05 15:08:05;;;;;;;7.13;4.40;;;;;;;12.02;70.27;98145.53;5070652;28;20198;-69
2022/01/05 15:10:32;;;;;;;8.23;4.77;;;;;;;11.90;71.24;98148.28;5070709;28;20206;-69